Causapscal, Canada
Current Conditions -  °F | °C
As of 5:00 PM on Saturday 25 Oct 2014 (Local Time) from CYYY Reporting Station
Overcast Overcast  
Wind Chill: 30°   Ceiling: 1500
Heat Index: 39°   Visibility: 15mi
Dew Point: 36°   Wind: 17mph
Humidity: 87%   Direction: 60°ENE
Pressure: 29.58"   Gusts: NA
Location:  48.35°N, 67.22°W
Report Text: CYYY 252100Z 06015KT 15SM BKN015 OVC060 04/02 A2958 RMK SC6SC2 SLP019
Loading
Personal Weather Stations






























Interactive Weather Map
Tropical Storm Tracking
New forecast layout! Learn more

10-Day Weather Forecast

Advertisements
Track Severe Weather on mobile